Time;durP1;ratioP1;P1;durP2;ratioP2;P2;SDS_P1;SDS_P2;PMS_P1;PMS_P2;Temp;Humidity;BMP_temperature;BMP_pressure;BME280_temperature;BME280_humidity;BME280_pressure;Samples;Min_cycle;Max_cycle;Signal;HPM_P1;HPM_P2
2024/03/08 00:01:50;;;;;;;;;;;4.40;99.90;;;;;;6699857;88;20470;-76
2024/03/08 00:11:52;;;;;;;;;;;4.30;99.90;;;;;;6702336;88;20082;-76
2024/03/08 00:21:52;;;;;;;;;;;4.20;99.90;;;;;;6703113;88;20079;-77
2024/03/08 00:31:53;;;;;;;;;;;4.10;99.90;;;;;;6707183;88;20119;-77
2024/03/08 00:52:56;;;;;;;;;;;3.90;99.90;;;;;;6702495;88;20076;-77
2024/03/08 01:02:56;;;;;;;;;;;3.90;99.90;;;;;;6726841;88;20137;-77
2024/03/08 01:12:59;;;;;;;;;;;3.80;99.90;;;;;;6725119;88;20126;-77
2024/03/08 01:22:59;;;;;;;;;;;3.80;99.90;;;;;;6723550;88;20047;-77
2024/03/08 01:33:00;;;;;;;;;;;3.60;99.90;;;;;;6717388;88;20080;-76
2024/03/08 01:43:19;;;;;;;;;;;3.60;99.90;;;;;;6730477;88;20092;-77
2024/03/08 01:53:20;;;;;;;;;;;3.60;99.90;;;;;;6728579;88;20051;-77
2024/03/08 02:03:22;;;;;;;;;;;3.60;99.90;;;;;;6724781;88;20066;-77
2024/03/08 02:13:22;;;;;;;;;;;3.80;99.90;;;;;;6719628;88;20051;-77
2024/03/08 02:23:24;;;;;;;;;;;3.70;99.90;;;;;;6725872;88;20191;-77
2024/03/08 02:33:27;;;;;;;;;;;3.70;99.90;;;;;;6723422;88;20172;-77
2024/03/08 02:43:27;;;;;;;;;;;3.60;99.90;;;;;;6720480;88;20078;-77
2024/03/08 02:53:28;;;;;;;;;;;3.70;99.90;;;;;;6718357;88;20579;-77
2024/03/08 03:03:28;;;;;;;;;;;3.50;99.90;;;;;;6721046;88;20577;-77
2024/03/08 03:13:29;;;;;;;;;;;3.60;99.90;;;;;;6723667;88;20210;-76
2024/03/08 03:23:33;;;;;;;;;;;3.50;99.90;;;;;;6719245;88;20071;-76
2024/03/08 03:33:36;;;;;;;;;;;3.50;99.90;;;;;;6716371;88;20085;-76
2024/03/08 03:43:40;;;;;;;;;;;3.40;99.90;;;;;;6719979;88;20227;-76
2024/03/08 03:53:40;;;;;;;;;;;3.40;99.90;;;;;;6717800;88;20066;-76
2024/03/08 04:03:42;;;;;;;;;;;3.40;99.90;;;;;;6715554;88;20497;-77
2024/03/08 04:13:43;;;;;;;;;;;3.40;99.90;;;;;;6719193;88;20062;-76
2024/03/08 04:23:45;;;;;;;;;;;3.50;99.90;;;;;;6722507;88;20075;-77
2024/03/08 04:33:45;;;;;;;;;;;3.40;99.90;;;;;;6715734;88;20592;-76
2024/03/08 04:43:46;;;;;;;;;;;3.50;99.90;;;;;;6724306;88;20186;-77
2024/03/08 04:53:46;;;;;;;;;;;3.30;99.90;;;;;;6716802;88;20699;-77
2024/03/08 05:03:49;;;;;;;;;;;3.30;99.90;;;;;;6716735;88;20083;-77
2024/03/08 05:13:50;;;;;;;;;;;3.20;99.90;;;;;;6724791;88;20058;-76
2024/03/08 05:23:50;;;;;;;;;;;3.20;99.90;;;;;;6717905;88;20051;-76
2024/03/08 05:33:51;;;;;;;;;;;3.10;99.90;;;;;;6723214;88;20197;-76
2024/03/08 05:43:51;;;;;;;;;;;3.10;99.90;;;;;;6717079;88;20202;-77
2024/03/08 05:53:53;;;;;;;;;;;3.00;99.90;;;;;;6720208;88;20079;-78
2024/03/08 06:03:55;;;;;;;;;;;2.80;99.90;;;;;;6720674;88;20157;-76
2024/03/08 06:13:59;;;;;;;;;;;2.80;99.90;;;;;;6725076;88;20527;-76
2024/03/08 06:24:00;;;;;;;;;;;2.80;99.90;;;;;;6734519;88;20068;-77
2024/03/08 06:34:01;;;;;;;;;;;2.70;99.90;;;;;;6721318;88;20509;-76
2024/03/08 06:44:01;;;;;;;;;;;2.50;99.90;;;;;;6729763;88;20205;-76
2024/03/08 06:54:08;;;;;;;;;;;2.50;99.90;;;;;;6722964;88;20052;-76
2024/03/08 07:04:08;;;;;;;;;;;2.90;99.90;;;;;;6721540;77;20719;-75
2024/03/08 07:14:09;;;;;;;;;;;3.10;99.90;;;;;;6721889;88;20184;-75
2024/03/08 07:24:27;;;;;;;;;;;3.50;99.90;;;;;;6719609;88;20058;-75
2024/03/08 07:34:31;;;;;;;;;;;3.70;99.90;;;;;;6726608;88;20169;-76
2024/03/08 07:44:32;;;;;;;;;;;4.20;99.90;;;;;;6718004;88;20581;-75
2024/03/08 07:54:33;;;;;;;;;;;4.60;99.90;;;;;;6715667;88;20116;-76
2024/03/08 08:04:34;;;;;;;;;;;5.20;99.90;;;;;;6716023;88;20570;-76
2024/03/08 08:14:35;;;;;;;;;;;7.00;99.90;;;;;;6722139;88;20063;-76
2024/03/08 08:24:36;;;;;;;;;;;8.50;99.90;;;;;;6719069;88;20072;-77
2024/03/08 08:34:37;;;;;;;;;;;7.00;99.90;;;;;;6724236;88;20471;-76
2024/03/08 08:44:37;;;;;;;;;;;8.30;99.90;;;;;;6723430;88;20158;-75
2024/03/08 08:54:38;;;;;;;;;;;7.30;99.90;;;;;;6718445;88;20521;-76
2024/03/08 09:04:38;;;;;;;;;;;7.30;99.90;;;;;;6717061;88;20229;-75
2024/03/08 09:14:40;;;;;;;;;;;7.70;99.90;;;;;;6717773;88;20067;-76
2024/03/08 09:24:40;;;;;;;;;;;8.40;99.90;;;;;;6720620;88;20546;-76
2024/03/08 09:34:41;;;;;;;;;;;8.50;99.90;;;;;;6717745;88;20081;-74
2024/03/08 09:44:45;;;;;;;;;;;8.80;99.90;;;;;;6722953;88;20433;-77
2024/03/08 09:54:45;;;;;;;;;;;9.30;99.90;;;;;;6721439;88;20152;-75
2024/03/08 10:04:46;;;;;;;;;;;9.20;99.90;;;;;;6719087;88;20063;-75
2024/03/08 10:14:47;;;;;;;;;;;9.20;99.90;;;;;;6719791;88;20533;-76
2024/03/08 10:24:47;;;;;;;;;;;9.50;99.90;;;;;;6720264;88;20065;-77
2024/03/08 10:34:49;;;;;;;;;;;10.00;99.90;;;;;;6720248;88;20563;-77
2024/03/08 10:44:58;;;;;;;;;;;10.10;99.70;;;;;;6716357;88;20202;-77
2024/03/08 10:54:59;;;;;;;;;;;10.70;99.40;;;;;;6715930;88;20080;-76
2024/03/08 11:05:01;;;;;;;;;;;11.40;98.80;;;;;;6722287;88;20070;-76
2024/03/08 11:15:10;;;;;;;;;;;11.00;98.40;;;;;;6723356;88;20201;-77
2024/03/08 11:25:30;;;;;;;;;;;11.70;97.50;;;;;;6723743;88;20189;-77
2024/03/08 11:35:30;;;;;;;;;;;11.80;97.70;;;;;;6721925;88;20063;-77
2024/03/08 11:45:30;;;;;;;;;;;11.90;97.10;;;;;;6722085;88;20201;-77
2024/03/08 11:55:35;;;;;;;;;;;12.30;96.80;;;;;;6725293;88;20193;-77
2024/03/08 12:05:35;;;;;;;;;;;12.20;95.90;;;;;;6726790;88;20746;-78
2024/03/08 12:15:36;;;;;;;;;;;13.50;95.50;;;;;;6724607;88;20086;-77
2024/03/08 12:25:36;;;;;;;;;;;14.40;94.70;;;;;;6724082;88;20069;-75
2024/03/08 12:35:37;;;;;;;;;;;13.00;95.00;;;;;;6726067;88;20138;-76
2024/03/08 12:45:37;;;;;;;;;;;13.30;94.80;;;;;;6724235;88;20118;-77
2024/03/08 12:55:38;;;;;;;;;;;13.20;94.60;;;;;;6721268;88;20140;-76
2024/03/08 13:05:42;;;;;;;;;;;13.60;93.80;;;;;;6729261;77;20090;-74
2024/03/08 13:15:43;;;;;;;;;;;13.80;93.40;;;;;;6711517;88;20209;-74
2024/03/08 13:25:43;;;;;;;;;;;13.60;93.50;;;;;;6700425;88;20442;-73
2024/03/08 13:35:44;;;;;;;;;;;13.40;93.60;;;;;;6706771;88;20120;-76
2024/03/08 13:45:45;;;;;;;;;;;13.80;93.30;;;;;;6699313;88;20113;-74
2024/03/08 13:55:46;;;;;;;;;;;14.60;93.30;;;;;;6698062;88;20541;-73
2024/03/08 14:05:46;;;;;;;;;;;14.00;93.80;;;;;;6703960;88;20099;-74
2024/03/08 14:15:48;;;;;;;;;;;13.60;93.40;;;;;;6703720;88;20058;-74
2024/03/08 14:25:51;;;;;;;;;;;15.20;92.70;;;;;;6706693;88;20654;-74
2024/03/08 14:35:52;;;;;;;;;;;14.80;92.80;;;;;;6696359;88;20498;-75
2024/03/08 14:45:52;;;;;;;;;;;14.20;93.20;;;;;;6693779;88;20120;-75
2024/03/08 14:55:53;;;;;;;;;;;14.80;92.60;;;;;;6693671;88;20064;-74
2024/03/08 15:05:53;;;;;;;;;;;13.80;93.50;;;;;;6695547;88;20475;-74
2024/03/08 15:15:57;;;;;;;;;;;13.40;93.90;;;;;;6700073;88;20240;-77
2024/03/08 15:25:57;;;;;;;;;;;13.60;93.70;;;;;;6703124;88;20534;-74
2024/03/08 15:35:59;;;;;;;;;;;13.30;93.80;;;;;;6702773;88;20044;-74
2024/03/08 15:46:01;;;;;;;;;;;13.20;94.30;;;;;;6707192;88;20071;-74
2024/03/08 15:56:02;;;;;;;;;;;12.90;94.40;;;;;;6700590;88;20075;-74
2024/03/08 16:06:04;;;;;;;;;;;12.80;94.40;;;;;;6703090;88;20097;-73
2024/03/08 16:16:05;;;;;;;;;;;12.40;94.70;;;;;;6710269;88;20701;-74
2024/03/08 16:26:06;;;;;;;;;;;12.10;95.40;;;;;;6697927;88;20091;-74
2024/03/08 16:36:07;;;;;;;;;;;12.20;95.40;;;;;;6699186;88;20059;-74
2024/03/08 16:46:08;;;;;;;;;;;11.50;95.90;;;;;;6701068;88;20040;-74
2024/03/08 16:56:11;;;;;;;;;;;11.40;96.30;;;;;;6703056;88;20494;-74
2024/03/08 17:06:11;;;;;;;;;;;11.30;96.80;;;;;;6707446;88;20574;-75
2024/03/08 17:16:12;;;;;;;;;;;10.90;97.20;;;;;;6711910;88;20129;-74
2024/03/08 17:26:12;;;;;;;;;;;10.60;97.40;;;;;;6710056;88;20055;-74
2024/03/08 17:36:15;;;;;;;;;;;10.30;97.70;;;;;;6706733;88;20172;-74
2024/03/08 17:46:16;;;;;;;;;;;10.20;98.10;;;;;;6708972;88;20681;-77
2024/03/08 17:56:16;;;;;;;;;;;10.00;98.50;;;;;;6710748;88;20199;-74
2024/03/08 18:06:17;;;;;;;;;;;9.80;98.80;;;;;;6703854;88;20270;-74
2024/03/08 18:16:18;;;;;;;;;;;9.70;99.00;;;;;;6700746;88;20508;-74
2024/03/08 18:26:19;;;;;;;;;;;9.60;99.30;;;;;;6703241;88;20052;-73
2024/03/08 18:36:20;;;;;;;;;;;9.40;99.70;;;;;;6699052;88;20084;-73
2024/03/08 18:46:20;;;;;;;;;;;9.30;99.90;;;;;;6693576;88;20189;-73
2024/03/08 18:56:23;;;;;;;;;;;9.20;99.90;;;;;;6695720;88;20049;-73
2024/03/08 19:06:30;;;;;;;;;;;9.10;99.90;;;;;;6699695;88;20087;-73
2024/03/08 19:16:31;;;;;;;;;;;9.00;99.90;;;;;;6695552;88;20111;-73
2024/03/08 19:26:31;;;;;;;;;;;8.70;99.90;;;;;;6700038;88;20181;-73
2024/03/08 19:36:32;;;;;;;;;;;8.60;99.90;;;;;;6696734;88;20064;-73
2024/03/08 19:46:40;;;;;;;;;;;8.50;99.90;;;;;;6698455;88;20449;-74
2024/03/08 19:56:43;;;;;;;;;;;8.20;99.90;;;;;;6697078;88;20051;-75
2024/03/08 20:06:45;;;;;;;;;;;8.10;99.90;;;;;;6698852;88;20147;-74
2024/03/08 20:16:47;;;;;;;;;;;7.90;99.90;;;;;;6702154;88;20107;-74
2024/03/08 20:26:47;;;;;;;;;;;7.90;99.90;;;;;;6696757;88;20466;-74
2024/03/08 20:36:48;;;;;;;;;;;7.90;99.90;;;;;;6701245;88;20063;-74
2024/03/08 20:46:49;;;;;;;;;;;7.80;99.90;;;;;;6696626;88;20109;-73
2024/03/08 20:56:51;;;;;;;;;;;7.80;99.90;;;;;;6698734;88;20084;-74
2024/03/08 21:06:52;;;;;;;;;;;7.70;99.90;;;;;;6703580;88;20104;-73
2024/03/08 21:16:53;;;;;;;;;;;7.60;99.90;;;;;;6709384;88;20060;-73
2024/03/08 21:26:54;;;;;;;;;;;7.70;99.90;;;;;;6717130;88;20064;-74
2024/03/08 21:36:55;;;;;;;;;;;7.80;99.90;;;;;;6699548;88;20088;-74
2024/03/08 21:46:55;;;;;;;;;;;7.60;99.90;;;;;;6710178;88;20245;-74
2024/03/08 21:56:58;;;;;;;;;;;7.50;99.90;;;;;;6701614;88;20696;-74
2024/03/08 22:06:59;;;;;;;;;;;7.60;99.90;;;;;;6698027;88;20764;-73
2024/03/08 22:17:00;;;;;;;;;;;7.70;99.90;;;;;;6702367;88;20150;-74
2024/03/08 22:27:01;;;;;;;;;;;7.60;99.90;;;;;;6703634;88;20094;-73
2024/03/08 22:37:04;;;;;;;;;;;7.60;99.90;;;;;;6701727;88;20067;-73
2024/03/08 22:47:07;;;;;;;;;;;7.40;99.90;;;;;;6704497;88;20479;-74
2024/03/08 22:57:08;;;;;;;;;;;7.30;99.90;;;;;;6702753;88;20068;-73
2024/03/08 23:07:10;;;;;;;;;;;7.20;99.90;;;;;;6712414;88;20080;-73
2024/03/08 23:17:11;;;;;;;;;;;7.00;99.90;;;;;;6705126;88;20048;-73
2024/03/08 23:27:12;;;;;;;;;;;6.80;99.90;;;;;;6710760;88;20060;-73
2024/03/08 23:37:12;;;;;;;;;;;6.80;99.90;;;;;;6707853;88;20075;-73
2024/03/08 23:47:13;;;;;;;;;;;6.70;99.90;;;;;;6699266;88;20055;-73
2024/03/08 23:57:13;;;;;;;;;;;6.40;99.90;;;;;;6704733;88;20136;-75
